Latest Weather Observations for Toolara

IDQ60801

Issued at 3:35 am EST Sunday 21 September 2014 (issued every 30 minutes, with the page automatically refreshed every 10 minutes)

About weather observations | Map of weather stations | Latest weather observations for QLD | Other Formats
Station Details ID: 040555 Name: TOOLARA (KELLY) Lat: -25.97 Lon: 152.86 Height: 143.0 m
Data from the previous 72 hours. | See also: Recent months at Toolara
Date/Time
EST
Temp
°C
App
Temp
°C
Dew
Point
Rel
Hum
%
Delta-T
°C
Wind Press
QNH
hPa
Press
MSL
hPa
Rain
since 9 am
mm
Dir
 
Spd
km/h
Gust
km/h
Spd
kts
Gust
kts
21/03:30am 14.8 14.8 14.2 96 0.3 - 7 9 4 5 - - -
21/03:00am 14.8 14.8 14.2 96 0.3 - 7 9 4 5 - - 0.0
21/02:30am 15.1 - 14.3 95 0.5 - - - - - - - -
21/02:00am 15.2 - 15.0 99 0.1 - - - - - - - -
21/01:30am 15.2 - 15.0 99 0.1 - - - - - - - -
21/01:00am 15.1 - 14.9 99 0.1 - - - - - - - -
21/12:30am 15.1 - 14.9 99 0.1 - - - - - - - -
21/12:00am 15.2 14.7 14.9 98 0.2 - 11 15 6 8 - - -
 
Date/Time
EST
Temp
°C
App
Temp
°C
Dew
Point
Rel
Hum
%
Delta-T
°C
Wind Press
QNH
hPa
Press
MSL
hPa
Rain
since 9 am
mm
Dir
 
Spd
km/h
Gust
km/h
Spd
kts
Gust
kts
20/11:30pm 15.4 - 14.6 95 0.5 - - - - - - - -
20/11:00pm 15.3 - 14.7 96 0.3 - - - - - - - -
20/10:30pm 15.3 - 14.7 96 0.3 - - - - - - - -
20/10:00pm 15.5 - 14.7 95 0.5 - - - - - - - -
20/09:30pm 15.3 - 14.3 94 0.6 - - - - - - - -
20/09:00pm 15.5 - 14.5 94 0.6 - - - - - - - 0.2
20/08:30pm 15.6 - 14.5 93 0.6 - - - - - - - -
20/08:00pm 15.7 - 14.2 91 0.9 - - - - - - - -
20/07:30pm 16.2 - 14.0 87 1.3 - - - - - - - -
20/07:00pm 16.8 16.0 14.1 84 1.5 - 11 15 6 8 - - -
20/06:30pm 17.6 - 14.7 83 1.7 - - - - - - - -
20/06:00pm 17.7 17.7 14.2 80 2.0 - 7 7 4 4 - - -
20/05:30pm 17.9 - 14.2 79 2.1 - - - - - - - -
20/05:00pm 18.4 - 14.5 78 2.3 - - - - - - - -
20/04:30pm 18.4 - 14.5 78 2.3 - - - - - - - -
20/04:00pm 18.6 - 14.5 77 2.4 - - - - - - - -
20/03:30pm 18.2 - 14.1 77 2.4 - - - - - - - -
20/03:00pm 19.4 - 12.9 66 3.7 - - - - - - - 0.0
20/02:30pm 23.8 - 12.4 48 6.6 - - - - - - - -
20/02:00pm 24.2 - 13.1 50 6.5 - - - - - - - -
20/01:30pm 23.9 - 11.6 46 7.0 - - - - - - - -
20/01:00pm 25.3 - 12.2 44 7.6 - - - - - - - -
20/12:30pm 24.0 - 10.7 43 7.4 - - - - - - - -
20/12:00pm 26.6 - 13.3 43 7.9 - - - - - - - -
20/11:30am 24.0 - 12.3 48 6.7 - - - - - - - -
20/11:00am 22.6 - 11.0 48 6.5 - - - - - - - -
20/10:30am 24.3 - 12.9 49 6.6 - - - - - - - -
20/10:00am 23.3 - 12.6 51 6.2 - - - - - - - -
20/09:30am 22.0 - 13.4 58 5.0 - - - - - - - -
20/09:00am 20.8 - 14.2 66 3.9 - - - - - - - 0.0
20/08:30am 19.4 - 14.2 72 3.0 - - - - - - - -
20/08:00am 18.2 - 13.5 74 2.7 - - - - - - - -
20/07:30am 17.7 17.7 13.6 77 2.3 - 6 7 3 4 - - -
20/07:00am 16.7 - 12.3 75 2.4 - - - - - - - -
20/06:30am 16.7 - 12.3 75 2.4 - - - - - - - -
20/06:00am 15.9 - 11.9 77 2.2 - - - - - - - -
20/05:30am 15.7 - 11.7 77 2.2 - - - - - - - -
20/05:00am 15.6 - 11.6 77 2.2 - - - - - - - -
20/04:30am 15.5 - 11.5 77 2.2 - - - - - - - -
20/04:00am 15.4 - 11.4 77 2.2 - - - - - - - -
20/03:30am 15.6 - 11.6 77 2.2 - - - - - - - -
20/03:00am 15.3 - 11.5 78 2.1 - - - - - - - 0.0
20/02:30am 15.0 - 11.4 79 1.9 - - - - - - - -
20/02:00am 15.6 - 11.0 74 2.5 - - - - - - - -
20/01:30am 16.4 - 11.6 73 2.6 - - - - - - - -
20/01:00am 17.1 - 11.8 71 2.9 - - - - - - - -
20/12:30am 17.5 - 12.0 70 3.0 - - - - - - - -
20/12:00am 17.5 - 12.0 70 3.0 - - - - - - - -
 
Date/Time
EST
Temp
°C
App
Temp
°C
Dew
Point
Rel
Hum
%
Delta-T
°C
Wind Press
QNH
hPa
Press
MSL
hPa
Rain
since 9 am
mm
Dir
 
Spd
km/h
Gust
km/h
Spd
kts
Gust
kts
19/11:30pm 16.3 - 11.2 72 2.8 - - - - - - - -
19/11:00pm 17.6 - 12.3 71 2.9 - - - - - - - -
19/10:30pm 17.5 - 12.2 71 2.9 - - - - - - - -
19/10:00pm 17.6 - 12.5 72 2.8 - - - - - - - -
19/09:30pm 17.2 - 12.3 73 2.7 - - - - - - - -
19/09:00pm 17.1 - 11.8 71 2.9 - - - - - - - 0.0
19/08:30pm 17.7 - 12.2 70 3.1 - - - - - - - -
19/08:00pm 17.7 - 12.2 70 3.1 - - - - - - - -
19/07:30pm 17.4 - 11.7 69 3.1 - - - - - - - -
19/07:00pm 17.8 - 11.8 68 3.3 - - - - - - - -
19/06:30pm 17.8 - 11.4 66 3.5 - - - - - - - -
19/06:00pm 18.2 - 11.3 64 3.8 - - - - - - - -
19/05:30pm 18.9 - 11.2 61 4.2 - - - - - - - -
19/05:00pm 19.4 - 11.4 60 4.4 - - - - - - - -
19/04:30pm 20.0 - 11.5 58 4.7 - - - - - - - -
19/04:00pm 20.5 - 11.4 56 5.1 - - - - - - - -
19/03:30pm 21.4 - 11.7 54 5.4 - - - - - - - -
19/03:00pm 22.5 - 11.6 50 6.1 - - - - - - - 0.0
19/02:30pm 23.0 - 11.1 47 6.7 - - - - - - - -
19/02:00pm 24.3 - 10.6 42 7.7 - - - - - - - -
19/01:30pm 23.6 - 8.1 37 8.3 - - - - - - - -
19/01:00pm 25.9 - 8.0 32 9.6 - - - - - - - -
19/12:30pm 25.6 - 8.6 34 9.2 - - - - - - - -
19/12:00pm 25.9 - 9.7 36 9.0 - - - - - - - -
19/11:30am 24.8 - 8.7 36 8.7 - - - - - - - -
19/11:00am 24.6 - 9.0 37 8.5 - - - - - - - -
19/10:30am 24.4 - 9.6 39 8.1 - - - - - - - -
19/10:00am 22.8 - 8.5 40 7.6 - - - - - - - -
19/09:30am 22.7 - 9.8 44 7.0 - - - - - - - -
19/09:00am 21.9 - 11.6 52 5.8 - - - - - - - 0.0
19/08:30am 19.1 - 10.4 57 4.7 - - - - - - - -
19/08:00am 17.5 - 8.6 56 4.6 - - - - - - - -
19/07:30am 15.5 - 7.8 60 3.9 - - - - - - - -
19/07:00am 16.5 - 8.0 57 4.3 - - - - - - - -
19/06:30am 15.3 - 7.8 61 3.8 - - - - - - - -
19/06:00am 15.0 - 7.3 60 3.8 - - - - - - - -
19/05:30am 14.6 - 7.2 61 3.7 - - - - - - - -
19/05:00am 14.1 - 6.9 62 3.5 - - - - - - - -
19/04:30am 14.6 - 7.6 63 3.5 - - - - - - - -
19/04:00am 12.8 - 6.2 64 3.2 - - - - - - - -
19/03:30am 15.7 - 7.2 57 4.2 - - - - - - - -
19/03:00am 16.0 - 7.5 57 4.3 - - - - - - - 0.0
19/02:30am 15.4 - 6.9 57 4.2 - - - - - - - -
19/02:00am 14.9 - 6.7 58 4.0 - - - - - - - -
19/01:30am 14.9 - 6.5 57 4.1 - - - - - - - -
19/01:00am 15.3 - 6.6 56 4.3 - - - - - - - -
19/12:30am 15.7 - 6.7 55 4.4 - - - - - - - -
19/12:00am 15.9 - 6.9 55 4.5 - - - - - - - -
 
Date/Time
EST
Temp
°C
App
Temp
°C
Dew
Point
Rel
Hum
%
Delta-T
°C
Wind Press
QNH
hPa
Press
MSL
hPa
Rain
since 9 am
mm
Dir
 
Spd
km/h
Gust
km/h
Spd
kts
Gust
kts
18/11:30pm 15.6 - 7.1 57 4.2 - - - - - - - -
18/11:00pm 15.2 - 6.7 57 4.2 - - - - - - - -
18/10:30pm 15.9 - 6.9 55 4.5 - - - - - - - -
18/10:00pm 16.0 - 6.7 54 4.6 - - - - - - - -
18/09:30pm 16.0 - 7.0 55 4.5 - - - - - - - -
18/09:00pm 16.0 - 7.0 55 4.5 - - - - - - - 0.0
18/08:30pm 16.6 - 6.4 51 5.0 - - - - - - - -
18/08:00pm 17.5 - 7.0 50 5.3 - - - - - - - -
18/07:30pm 17.4 - 7.2 51 5.1 - - - - - - - -
18/07:00pm 17.0 - 7.1 52 5.0 - - - - - - - -
18/06:30pm 16.7 - 6.8 52 4.9 - - - - - - - -
18/06:00pm 17.4 - 6.6 49 5.4 - - - - - - - -
18/05:30pm 18.2 - 6.4 46 5.9 - - - - - - - -
18/05:00pm 19.2 - 6.0 42 6.6 - - - - - - - -
18/04:30pm 20.0 - 5.3 38 7.3 - - - - - - - -
18/04:00pm 20.7 - 5.1 36 7.7 - - - - - - - -
18/03:30pm 22.0 - 5.0 33 8.5 - - - - - - - -
18/03:00pm 23.9 - 3.8 27 9.9 - - - - - - - 0.0
18/02:30pm 26.5 - 1.7 20 12.0 - - - - - - - -
18/02:00pm 25.9 - 0.5 19 12.0 - - - - - - - -
18/01:30pm 26.3 - 2.3 21 11.7 - - - - - - - -
18/01:00pm 25.3 - 1.4 21 11.4 - - - - - - - -
18/12:30pm 25.3 - 1.4 21 11.4 - - - - - - - -
18/12:00pm 24.7 - 2.2 23 10.8 - - - - - - - -
18/11:30am 24.5 - 3.2 25 10.4 - - - - - - - -
18/11:00am 23.8 - 3.7 27 9.9 - - - - - - - -
18/10:30am 23.0 - 4.0 29 9.3 - - - - - - - -
18/10:00am 22.7 - 5.6 33 8.7 - - - - - - - -
18/09:30am 21.5 - 5.4 35 8.1 - - - - - - - -
18/09:00am 20.7 - 8.0 44 6.6 - - - - - - - 0.0
18/08:30am 19.4 - 9.0 51 5.5 - - - - - - - -
18/08:00am 17.3 - 9.0 58 4.3 - - - - - - - -
18/07:30am 15.5 - 7.8 60 3.9 - - - - - - - -
18/07:00am 14.8 - 7.1 60 3.8 - - - - - - - -
18/06:30am 14.8 - 7.4 61 3.7 - - - - - - - -
18/06:00am 14.3 - 8.3 67 3.0 - - - - - - - -
18/05:30am 14.6 - 9.0 69 2.9 - - - - - - - -
18/05:00am 14.7 - 8.9 68 3.0 - - - - - - - -
18/04:30am 15.1 - 9.7 70 2.8 - - - - - - - -
18/04:00am 15.3 - 10.9 75 2.4 - - - - - - - -

Other Formats:

Comma delimited format used in spreadsheet applications
http://www.bom.gov.au/fwo/IDQ60801/IDQ60801.94558.axf

JavaScript Object Notation format (JSON) in row-major order
http://www.bom.gov.au/fwo/IDQ60801/IDQ60801.94558.json